sensor_id;sensor_type;location;lat;lon;timestamp;pressure;altitude;pressure_sealevel;temperature;humidity
11912;BME280;6016;41.928;25.556;2023-05-20T00:02:08;99248.66;;;17.41;71.26
11912;BME280;6016;41.928;25.556;2023-05-20T00:04:35;99241.13;;;17.44;71.72
11912;BME280;6016;41.928;25.556;2023-05-20T00:07:01;99239.41;;;17.52;71.46
11912;BME280;6016;41.928;25.556;2023-05-20T00:09:28;99245.75;;;17.51;72.10
11912;BME280;6016;41.928;25.556;2023-05-20T00:11:56;99241.06;;;17.53;71.61
11912;BME280;6016;41.928;25.556;2023-05-20T00:14:23;98953.94;;;15.55;71.22
11912;BME280;6016;41.928;25.556;2023-05-20T00:16:50;99226.94;;;17.44;72.70
11912;BME280;6016;41.928;25.556;2023-05-20T00:19:17;99174.06;;;17.18;71.96
11912;BME280;6016;41.928;25.556;2023-05-20T00:21:43;99138.75;;;16.77;71.24
11912;BME280;6016;41.928;25.556;2023-05-20T00:24:10;99233.03;;;17.38;72.14
11912;BME280;6016;41.928;25.556;2023-05-20T00:26:37;99227.78;;;17.44;72.01
11912;BME280;6016;41.928;25.556;2023-05-20T00:29:05;99176.50;;;17.04;71.51
11912;BME280;6016;41.928;25.556;2023-05-20T00:31:32;99215.44;;;17.28;72.53
11912;BME280;6016;41.928;25.556;2023-05-20T00:33:59;99219.03;;;17.36;71.23
11912;BME280;6016;41.928;25.556;2023-05-20T00:36:26;99206.72;;;17.35;70.92
11912;BME280;6016;41.928;25.556;2023-05-20T00:38:53;99141.31;;;16.85;71.54
11912;BME280;6016;41.928;25.556;2023-05-20T00:41:19;99206.69;;;17.20;71.55
11912;BME280;6016;41.928;25.556;2023-05-20T00:43:46;99192.19;;;17.22;71.31
11912;BME280;6016;41.928;25.556;2023-05-20T00:46:15;99204.88;;;17.35;71.42
11912;BME280;6016;41.928;25.556;2023-05-20T00:48:42;99210.94;;;17.29;70.75
11912;BME280;6016;41.928;25.556;2023-05-20T00:51:10;99199.97;;;17.24;71.38
11912;BME280;6016;41.928;25.556;2023-05-20T00:53:37;98956.19;;;15.66;71.19
11912;BME280;6016;41.928;25.556;2023-05-20T00:56:05;99157.38;;;17.00;70.22
11912;BME280;6016;41.928;25.556;2023-05-20T00:58:33;99206.91;;;17.33;70.81
11912;BME280;6016;41.928;25.556;2023-05-20T01:01:01;99106.56;;;16.64;70.66
11912;BME280;6016;41.928;25.556;2023-05-20T01:03:29;99108.53;;;16.62;70.73
11912;BME280;6016;41.928;25.556;2023-05-20T01:05:56;99211.59;;;17.31;71.08
11912;BME280;6016;41.928;25.556;2023-05-20T01:08:24;98994.91;;;16.00;70.99
11912;BME280;6016;41.928;25.556;2023-05-20T01:10:57;99057.88;;;16.31;70.44
11912;BME280;6016;41.928;25.556;2023-05-20T01:13:31;99172.66;;;17.22;70.53
11912;BME280;6016;41.928;25.556;2023-05-20T01:15:59;99163.66;;;17.08;70.58
11912;BME280;6016;41.928;25.556;2023-05-20T01:18:28;98965.53;;;15.85;70.19
11912;BME280;6016;41.928;25.556;2023-05-20T01:20:56;99207.19;;;17.38;70.79
11912;BME280;6016;41.928;25.556;2023-05-20T01:23:32;99198.72;;;17.35;70.08
11912;BME280;6016;41.928;25.556;2023-05-20T01:25:59;99199.63;;;17.27;70.59
11912;BME280;6016;41.928;25.556;2023-05-20T01:28:27;99200.44;;;17.27;70.23
11912;BME280;6016;41.928;25.556;2023-05-20T01:30:57;99160.31;;;16.82;71.04
11912;BME280;6016;41.928;25.556;2023-05-20T01:33:27;99192.25;;;17.14;71.50
11912;BME280;6016;41.928;25.556;2023-05-20T01:35:55;99169.72;;;17.17;71.09
11912;BME280;6016;41.928;25.556;2023-05-20T01:38:23;99193.53;;;17.18;70.20
11912;BME280;6016;41.928;25.556;2023-05-20T01:40:52;99160.53;;;17.04;69.80
11912;BME280;6016;41.928;25.556;2023-05-20T01:43:20;99200.34;;;17.21;70.71
11912;BME280;6016;41.928;25.556;2023-05-20T01:45:47;99197.03;;;17.19;71.82
11912;BME280;6016;41.928;25.556;2023-05-20T01:48:13;99139.66;;;16.84;71.34
11912;BME280;6016;41.928;25.556;2023-05-20T01:50:41;98835.56;;;14.89;70.45
11912;BME280;6016;41.928;25.556;2023-05-20T01:53:08;99047.44;;;15.98;70.70
11912;BME280;6016;41.928;25.556;2023-05-20T01:55:35;98989.97;;;15.89;71.02
11912;BME280;6016;41.928;25.556;2023-05-20T01:58:03;99189.03;;;17.19;71.56
11912;BME280;6016;41.928;25.556;2023-05-20T02:00:30;99170.84;;;16.99;72.05
11912;BME280;6016;41.928;25.556;2023-05-20T02:02:57;99164.16;;;16.80;70.87
11912;BME280;6016;41.928;25.556;2023-05-20T02:05:24;99184.25;;;16.91;71.61
11912;BME280;6016;41.928;25.556;2023-05-20T02:07:51;99105.53;;;16.41;71.79
11912;BME280;6016;41.928;25.556;2023-05-20T02:10:18;99089.97;;;16.30;71.63
11912;BME280;6016;41.928;25.556;2023-05-20T02:12:45;99031.03;;;15.95;71.97
11912;BME280;6016;41.928;25.556;2023-05-20T02:15:15;99184.03;;;16.77;72.09
11912;BME280;6016;41.928;25.556;2023-05-20T02:17:42;99195.06;;;16.89;70.96
11912;BME280;6016;41.928;25.556;2023-05-20T02:20:09;99174.66;;;16.58;71.80
11912;BME280;6016;41.928;25.556;2023-05-20T02:22:36;98976.03;;;14.84;72.62
11912;BME280;6016;41.928;25.556;2023-05-20T02:25:03;99198.16;;;16.78;71.39
11912;BME280;6016;41.928;25.556;2023-05-20T02:27:30;99200.78;;;16.86;70.74
11912;BME280;6016;41.928;25.556;2023-05-20T02:29:57;99202.53;;;16.94;70.53
11912;BME280;6016;41.928;25.556;2023-05-20T02:32:26;99194.38;;;16.95;71.37
11912;BME280;6016;41.928;25.556;2023-05-20T02:34:53;99187.63;;;16.84;71.85
11912;BME280;6016;41.928;25.556;2023-05-20T02:37:20;99133.41;;;16.54;71.11
11912;BME280;6016;41.928;25.556;2023-05-20T02:39:47;99081.56;;;15.95;70.75
11912;BME280;6016;41.928;25.556;2023-05-20T02:42:13;99188.22;;;16.95;70.46
11912;BME280;6016;41.928;25.556;2023-05-20T02:44:40;99187.63;;;16.84;70.89
11912;BME280;6016;41.928;25.556;2023-05-20T02:47:07;99188.63;;;16.83;71.53
11912;BME280;6016;41.928;25.556;2023-05-20T02:49:35;99194.06;;;16.90;70.83
11912;BME280;6016;41.928;25.556;2023-05-20T02:52:02;99199.22;;;16.92;70.95
11912;BME280;6016;41.928;25.556;2023-05-20T02:54:29;99184.31;;;16.82;71.17
11912;BME280;6016;41.928;25.556;2023-05-20T02:56:56;99202.69;;;17.00;69.97
11912;BME280;6016;41.928;25.556;2023-05-20T02:59:23;99194.31;;;16.80;70.30
11912;BME280;6016;41.928;25.556;2023-05-20T03:01:50;99149.56;;;16.52;71.19
11912;BME280;6016;41.928;25.556;2023-05-20T03:04:17;99214.38;;;16.91;72.31
11912;BME280;6016;41.928;25.556;2023-05-20T03:06:47;99141.09;;;16.49;70.68
11912;BME280;6016;41.928;25.556;2023-05-20T03:09:16;99210.50;;;17.02;70.07
11912;BME280;6016;41.928;25.556;2023-05-20T03:11:43;99213.47;;;16.99;71.67
11912;BME280;6016;41.928;25.556;2023-05-20T03:14:10;99042.56;;;15.79;70.25
11912;BME280;6016;41.928;25.556;2023-05-20T03:16:37;99177.16;;;16.83;71.76
11912;BME280;6016;41.928;25.556;2023-05-20T03:19:04;99159.50;;;16.58;70.94
11912;BME280;6016;41.928;25.556;2023-05-20T03:21:31;99103.84;;;16.25;71.11
11912;BME280;6016;41.928;25.556;2023-05-20T03:23:59;99038.28;;;16.01;70.70
11912;BME280;6016;41.928;25.556;2023-05-20T03:26:26;99209.50;;;17.03;70.72
11912;BME280;6016;41.928;25.556;2023-05-20T03:28:54;99108.91;;;16.35;69.82
11912;BME280;6016;41.928;25.556;2023-05-20T03:31:21;99215.94;;;17.09;70.76
11912;BME280;6016;41.928;25.556;2023-05-20T03:33:48;99120.06;;;16.39;70.27
11912;BME280;6016;41.928;25.556;2023-05-20T03:36:15;99219.97;;;17.05;70.12
11912;BME280;6016;41.928;25.556;2023-05-20T03:38:42;98968.88;;;15.56;70.54
11912;BME280;6016;41.928;25.556;2023-05-20T03:41:10;99215.06;;;17.17;70.97
11912;BME280;6016;41.928;25.556;2023-05-20T03:43:37;99051.66;;;16.16;70.22
11912;BME280;6016;41.928;25.556;2023-05-20T03:46:04;99252.13;;;17.03;70.34
11912;BME280;6016;41.928;25.556;2023-05-20T03:48:30;99178.72;;;16.92;70.32
11912;BME280;6016;41.928;25.556;2023-05-20T03:50:57;99115.84;;;16.44;69.78
11912;BME280;6016;41.928;25.556;2023-05-20T03:53:24;99221.63;;;17.06;70.49
11912;BME280;6016;41.928;25.556;2023-05-20T03:55:51;99241.13;;;17.06;70.21
11912;BME280;6016;41.928;25.556;2023-05-20T03:58:19;98954.72;;;15.32;70.85
11912;BME280;6016;41.928;25.556;2023-05-20T04:00:47;99226.78;;;17.07;70.85
11912;BME280;6016;41.928;25.556;2023-05-20T04:03:14;99231.41;;;17.13;70.51
11912;BME280;6016;41.928;25.556;2023-05-20T04:05:41;99223.75;;;17.10;70.31
11912;BME280;6016;41.928;25.556;2023-05-20T04:08:07;99212.19;;;16.71;70.01
11912;BME280;6016;41.928;25.556;2023-05-20T04:10:34;99236.53;;;17.15;70.44
11912;BME280;6016;41.928;25.556;2023-05-20T04:13:01;99236.53;;;17.15;70.00
11912;BME280;6016;41.928;25.556;2023-05-20T04:15:29;99087.91;;;16.17;70.57
11912;BME280;6016;41.928;25.556;2023-05-20T04:17:56;99222.47;;;16.98;70.39
11912;BME280;6016;41.928;25.556;2023-05-20T04:20:23;99230.03;;;17.18;71.35
11912;BME280;6016;41.928;25.556;2023-05-20T04:22:50;99230.16;;;17.24;70.82
11912;BME280;6016;41.928;25.556;2023-05-20T04:25:18;99100.69;;;16.22;70.10
11912;BME280;6016;41.928;25.556;2023-05-20T04:27:45;99224.81;;;17.24;70.19
11912;BME280;6016;41.928;25.556;2023-05-20T04:30:12;99211.25;;;17.11;70.63
11912;BME280;6016;41.928;25.556;2023-05-20T04:32:42;99241.44;;;17.26;70.28
11912;BME280;6016;41.928;25.556;2023-05-20T04:35:10;99229.13;;;17.25;70.35
11912;BME280;6016;41.928;25.556;2023-05-20T04:37:38;98560.78;;;13.03;69.47
11912;BME280;6016;41.928;25.556;2023-05-20T04:40:05;98919.38;;;15.31;69.72
11912;BME280;6016;41.928;25.556;2023-05-20T04:42:33;99230.94;;;17.25;69.72
11912;BME280;6016;41.928;25.556;2023-05-20T04:45:00;99143.53;;;16.58;70.02
11912;BME280;6016;41.928;25.556;2023-05-20T04:47:30;99123.84;;;16.44;71.07
11912;BME280;6016;41.928;25.556;2023-05-20T04:50:05;98875.06;;;14.44;69.73
11912;BME280;6016;41.928;25.556;2023-05-20T04:52:33;99061.13;;;16.19;69.32
11912;BME280;6016;41.928;25.556;2023-05-20T04:55:00;99256.28;;;17.44;70.59
11912;BME280;6016;41.928;25.556;2023-05-20T04:57:27;99251.56;;;17.31;69.85
11912;BME280;6016;41.928;25.556;2023-05-20T04:59:54;99241.69;;;17.55;70.04
11912;BME280;6016;41.928;25.556;2023-05-20T05:02:23;99133.84;;;16.81;69.87
11912;BME280;6016;41.928;25.556;2023-05-20T05:04:50;99250.81;;;17.61;69.66
11912;BME280;6016;41.928;25.556;2023-05-20T05:07:18;99249.59;;;17.63;70.08
11912;BME280;6016;41.928;25.556;2023-05-20T05:09:45;99207.00;;;17.40;69.66
11912;BME280;6016;41.928;25.556;2023-05-20T05:12:12;99185.91;;;17.15;70.10
11912;BME280;6016;41.928;25.556;2023-05-20T05:14:38;99056.16;;;16.39;69.28
11912;BME280;6016;41.928;25.556;2023-05-20T05:17:05;99258.44;;;17.64;69.98
11912;BME280;6016;41.928;25.556;2023-05-20T05:19:32;99169.84;;;17.00;69.53
11912;BME280;6016;41.928;25.556;2023-05-20T05:21:59;99248.84;;;17.54;69.79
11912;BME280;6016;41.928;25.556;2023-05-20T05:24:27;99284.47;;;17.62;68.63
11912;BME280;6016;41.928;25.556;2023-05-20T05:26:54;99121.31;;;16.66;69.88
11912;BME280;6016;41.928;25.556;2023-05-20T05:29:21;99256.72;;;17.71;69.35
11912;BME280;6016;41.928;25.556;2023-05-20T05:31:48;99184.66;;;17.26;69.59
11912;BME280;6016;41.928;25.556;2023-05-20T05:34:15;99264.63;;;17.79;68.80
11912;BME280;6016;41.928;25.556;2023-05-20T05:36:42;99122.03;;;16.83;69.26
11912;BME280;6016;41.928;25.556;2023-05-20T05:39:08;99204.34;;;17.40;68.90
11912;BME280;6016;41.928;25.556;2023-05-20T05:41:37;99270.91;;;17.86;69.17
11912;BME280;6016;41.928;25.556;2023-05-20T05:44:04;99277.50;;;17.91;68.55
11912;BME280;6016;41.928;25.556;2023-05-20T05:46:31;99191.31;;;17.45;67.71
11912;BME280;6016;41.928;25.556;2023-05-20T05:48:58;99271.03;;;18.08;69.23
11912;BME280;6016;41.928;25.556;2023-05-20T05:51:26;99270.09;;;18.16;69.33
11912;BME280;6016;41.928;25.556;2023-05-20T05:53:53;99229.31;;;17.92;69.33
11912;BME280;6016;41.928;25.556;2023-05-20T05:56:20;99206.00;;;17.86;69.16
11912;BME280;6016;41.928;25.556;2023-05-20T05:58:48;99249.25;;;18.26;67.91
11912;BME280;6016;41.928;25.556;2023-05-20T06:01:15;99263.91;;;18.31;68.22
11912;BME280;6016;41.928;25.556;2023-05-20T06:03:42;99284.34;;;18.38;67.87
11912;BME280;6016;41.928;25.556;2023-05-20T06:06:09;99213.97;;;18.09;68.06
11912;BME280;6016;41.928;25.556;2023-05-20T06:08:36;99246.09;;;18.16;69.51
11912;BME280;6016;41.928;25.556;2023-05-20T06:11:06;99156.31;;;17.85;68.95
11912;BME280;6016;41.928;25.556;2023-05-20T06:13:33;99278.31;;;18.51;68.09
11912;BME280;6016;41.928;25.556;2023-05-20T06:16:01;99280.28;;;18.58;67.46
11912;BME280;6016;41.928;25.556;2023-05-20T06:18:28;99082.59;;;17.47;67.55
11912;BME280;6016;41.928;25.556;2023-05-20T06:20:55;99223.41;;;18.27;67.54
11912;BME280;6016;41.928;25.556;2023-05-20T06:23:22;98908.72;;;16.40;68.34
11912;BME280;6016;41.928;25.556;2023-05-20T06:25:49;99284.72;;;18.87;68.27
11912;BME280;6016;41.928;25.556;2023-05-20T06:28:16;99289.38;;;19.00;68.82
11912;BME280;6016;41.928;25.556;2023-05-20T06:30:43;99288.69;;;19.13;69.12
11912;BME280;6016;41.928;25.556;2023-05-20T06:33:11;99253.88;;;19.06;68.07
11912;BME280;6016;41.928;25.556;2023-05-20T06:35:38;99133.53;;;18.34;67.54
11912;BME280;6016;41.928;25.556;2023-05-20T06:38:05;99237.94;;;18.98;67.45
11912;BME280;6016;41.928;25.556;2023-05-20T06:40:32;99199.75;;;18.82;67.80
11912;BME280;6016;41.928;25.556;2023-05-20T06:42:59;99206.09;;;18.60;67.60
11912;BME280;6016;41.928;25.556;2023-05-20T06:45:26;99275.75;;;19.38;69.34
11912;BME280;6016;41.928;25.556;2023-05-20T06:47:52;99187.06;;;18.69;66.78
11912;BME280;6016;41.928;25.556;2023-05-20T06:50:21;99265.94;;;19.46;66.80
11912;BME280;6016;41.928;25.556;2023-05-20T06:52:48;99270.53;;;19.59;65.60
11912;BME280;6016;41.928;25.556;2023-05-20T06:55:15;99274.75;;;19.68;65.46
11912;BME280;6016;41.928;25.556;2023-05-20T06:57:42;99268.53;;;19.61;67.64
11912;BME280;6016;41.928;25.556;2023-05-20T07:00:10;99103.09;;;18.57;67.05
11912;BME280;6016;41.928;25.556;2023-05-20T07:02:38;99184.41;;;19.13;67.92
11912;BME280;6016;41.928;25.556;2023-05-20T07:05:05;99098.09;;;18.69;67.93
11912;BME280;6016;41.928;25.556;2023-05-20T07:07:34;99257.44;;;19.92;66.46
11912;BME280;6016;41.928;25.556;2023-05-20T07:10:01;98687.84;;;16.47;66.41
11912;BME280;6016;41.928;25.556;2023-05-20T07:12:30;99249.84;;;20.03;65.78
11912;BME280;6016;41.928;25.556;2023-05-20T07:14:57;99155.25;;;19.53;65.73
11912;BME280;6016;41.928;25.556;2023-05-20T07:17:23;99276.06;;;20.14;65.57
11912;BME280;6016;41.928;25.556;2023-05-20T07:19:50;99176.00;;;19.45;68.18
11912;BME280;6016;41.928;25.556;2023-05-20T07:22:17;99260.44;;;20.18;68.90
11912;BME280;6016;41.928;25.556;2023-05-20T07:24:45;99260.22;;;20.13;68.35
11912;BME280;6016;41.928;25.556;2023-05-20T07:27:12;99269.56;;;20.30;67.40
11912;BME280;6016;41.928;25.556;2023-05-20T07:29:39;98961.06;;;18.47;65.42
11912;BME280;6016;41.928;25.556;2023-05-20T07:32:08;99258.50;;;20.47;66.06
11912;BME280;6016;41.928;25.556;2023-05-20T07:34:35;99229.16;;;20.18;65.46
11912;BME280;6016;41.928;25.556;2023-05-20T07:37:01;99256.97;;;20.79;63.47
11912;BME280;6016;41.928;25.556;2023-05-20T07:39:28;99248.88;;;20.73;64.89
11912;BME280;6016;41.928;25.556;2023-05-20T07:41:57;99226.03;;;20.77;65.79
11912;BME280;6016;41.928;25.556;2023-05-20T07:44:23;99200.28;;;20.83;66.05
11912;BME280;6016;41.928;25.556;2023-05-20T07:46:50;99252.72;;;21.26;64.78
11912;BME280;6016;41.928;25.556;2023-05-20T07:49:17;99262.84;;;21.50;64.91
11912;BME280;6016;41.928;25.556;2023-05-20T07:51:44;99258.47;;;21.63;64.77
11912;BME280;6016;41.928;25.556;2023-05-20T07:54:11;99263.03;;;21.49;62.97
11912;BME280;6016;41.928;25.556;2023-05-20T07:56:39;99257.22;;;21.05;62.85
11912;BME280;6016;41.928;25.556;2023-05-20T07:59:07;99252.72;;;21.19;60.94
11912;BME280;6016;41.928;25.556;2023-05-20T08:01:34;99254.78;;;21.44;62.47
11912;BME280;6016;41.928;25.556;2023-05-20T08:04:01;99254.38;;;21.47;58.60
11912;BME280;6016;41.928;25.556;2023-05-20T08:06:28;99205.66;;;21.10;60.38
11912;BME280;6016;41.928;25.556;2023-05-20T08:08:58;99252.81;;;20.77;61.71
11912;BME280;6016;41.928;25.556;2023-05-20T08:11:26;99267.16;;;21.11;60.06
11912;BME280;6016;41.928;25.556;2023-05-20T08:13:53;99270.81;;;20.97;61.99
11912;BME280;6016;41.928;25.556;2023-05-20T08:16:21;99273.75;;;21.08;62.03
11912;BME280;6016;41.928;25.556;2023-05-20T08:18:48;99266.13;;;21.32;61.14
11912;BME280;6016;41.928;25.556;2023-05-20T08:21:15;99139.75;;;20.33;59.83
11912;BME280;6016;41.928;25.556;2023-05-20T08:23:41;99249.63;;;21.29;58.06
11912;BME280;6016;41.928;25.556;2023-05-20T08:26:08;98911.03;;;19.04;59.95
11912;BME280;6016;41.928;25.556;2023-05-20T08:28:35;99290.28;;;21.19;59.42
11912;BME280;6016;41.928;25.556;2023-05-20T08:31:02;99222.38;;;21.05;58.36
11912;BME280;6016;41.928;25.556;2023-05-20T08:33:31;99188.72;;;21.29;57.92
11912;BME280;6016;41.928;25.556;2023-05-20T08:35:57;99230.38;;;21.65;58.45
11912;BME280;6016;41.928;25.556;2023-05-20T08:38:25;99255.34;;;21.93;56.87
11912;BME280;6016;41.928;25.556;2023-05-20T08:40:53;99140.03;;;21.32;57.16
11912;BME280;6016;41.928;25.556;2023-05-20T08:43:21;99260.22;;;22.23;57.30
11912;BME280;6016;41.928;25.556;2023-05-20T08:45:48;99259.63;;;22.14;58.01
11912;BME280;6016;41.928;25.556;2023-05-20T08:48:17;99208.09;;;21.78;57.88
11912;BME280;6016;41.928;25.556;2023-05-20T08:50:49;99225.22;;;21.84;58.61
11912;BME280;6016;41.928;25.556;2023-05-20T08:53:20;99247.88;;;22.02;57.52
11912;BME280;6016;41.928;25.556;2023-05-20T08:55:52;99149.88;;;21.45;57.58
11912;BME280;6016;41.928;25.556;2023-05-20T08:58:20;99250.47;;;22.29;58.13
11912;BME280;6016;41.928;25.556;2023-05-20T09:00:47;99217.84;;;22.25;58.83
11912;BME280;6016;41.928;25.556;2023-05-20T09:03:14;99254.53;;;22.52;58.02
11912;BME280;6016;41.928;25.556;2023-05-20T09:05:41;99018.91;;;21.22;54.70
11912;BME280;6016;41.928;25.556;2023-05-20T09:08:10;99254.88;;;22.69;55.50
11912;BME280;6016;41.928;25.556;2023-05-20T09:10:38;99255.34;;;22.59;54.95
11912;BME280;6016;41.928;25.556;2023-05-20T09:13:06;99195.56;;;22.18;54.89
11912;BME280;6016;41.928;25.556;2023-05-20T09:15:34;99267.78;;;22.46;55.64
11912;BME280;6016;41.928;25.556;2023-05-20T09:18:07;99269.59;;;22.00;56.63
11912;BME280;6016;41.928;25.556;2023-05-20T09:20:36;99260.94;;;21.85;56.69
11912;BME280;6016;41.928;25.556;2023-05-20T09:23:06;99251.81;;;21.92;58.40
11912;BME280;6016;41.928;25.556;2023-05-20T09:25:35;99260.78;;;22.39;57.13
11912;BME280;6016;41.928;25.556;2023-05-20T09:28:03;99251.34;;;22.23;57.95
11912;BME280;6016;41.928;25.556;2023-05-20T09:30:31;99262.06;;;22.29;55.79
11912;BME280;6016;41.928;25.556;2023-05-20T09:32:59;99250.34;;;22.10;58.45
11912;BME280;6016;41.928;25.556;2023-05-20T09:35:29;99239.88;;;21.82;58.02
11912;BME280;6016;41.928;25.556;2023-05-20T09:37:57;99252.09;;;21.50;58.42
11912;BME280;6016;41.928;25.556;2023-05-20T09:40:25;98959.69;;;19.35;58.14
11912;BME280;6016;41.928;25.556;2023-05-20T09:42:56;99098.53;;;20.34;58.44
11912;BME280;6016;41.928;25.556;2023-05-20T09:45:23;99252.31;;;21.22;58.18
11912;BME280;6016;41.928;25.556;2023-05-20T09:47:50;99253.53;;;21.19;60.55
11912;BME280;6016;41.928;25.556;2023-05-20T09:50:18;99135.97;;;20.07;61.81
11912;BME280;6016;41.928;25.556;2023-05-20T09:52:47;98891.97;;;18.79;60.80
11912;BME280;6016;41.928;25.556;2023-05-20T09:55:15;98719.41;;;17.58;60.79
11912;BME280;6016;41.928;25.556;2023-05-20T09:57:42;98848.56;;;18.28;61.71
11912;BME280;6016;41.928;25.556;2023-05-20T10:00:12;98669.50;;;17.24;59.91
11912;BME280;6016;41.928;25.556;2023-05-20T10:02:42;99239.88;;;20.87;60.90
11912;BME280;6016;41.928;25.556;2023-05-20T10:05:14;99166.78;;;20.51;60.22
11912;BME280;6016;41.928;25.556;2023-05-20T10:07:58;99192.56;;;20.52;62.08
11912;BME280;6016;41.928;25.556;2023-05-20T10:10:35;99166.97;;;20.36;62.03
11912;BME280;6016;41.928;25.556;2023-05-20T10:13:11;99069.56;;;19.82;61.71
11912;BME280;6016;41.928;25.556;2023-05-20T10:15:48;99225.41;;;20.75;62.42
11912;BME280;6016;41.928;25.556;2023-05-20T10:18:26;99147.44;;;20.63;62.96
11912;BME280;6016;41.928;25.556;2023-05-20T10:20:56;99227.13;;;21.36;62.60
11912;BME280;6016;41.928;25.556;2023-05-20T10:23:23;99179.25;;;21.13;61.17
11912;BME280;6016;41.928;25.556;2023-05-20T10:25:55;99171.41;;;21.18;61.77
11912;BME280;6016;41.928;25.556;2023-05-20T10:28:29;99228.91;;;21.90;60.49
11912;BME280;6016;41.928;25.556;2023-05-20T10:30:59;99157.13;;;21.52;59.86
11912;BME280;6016;41.928;25.556;2023-05-20T10:33:26;99219.13;;;22.16;59.15
11912;BME280;6016;41.928;25.556;2023-05-20T10:35:54;99170.34;;;22.12;59.29
11912;BME280;6016;41.928;25.556;2023-05-20T10:38:23;99164.63;;;21.95;56.19
11912;BME280;6016;41.928;25.556;2023-05-20T10:40:51;99164.56;;;22.09;55.57
11912;BME280;6016;41.928;25.556;2023-05-20T10:43:25;99173.13;;;21.92;56.29
11912;BME280;6016;41.928;25.556;2023-05-20T10:45:53;99112.72;;;21.49;58.28
11912;BME280;6016;41.928;25.556;2023-05-20T10:48:27;99198.16;;;22.31;56.64
11912;BME280;6016;41.928;25.556;2023-05-20T10:50:55;99208.53;;;22.21;56.62
11912;BME280;6016;41.928;25.556;2023-05-20T10:53:24;99208.53;;;22.21;55.46
11912;BME280;6016;41.928;25.556;2023-05-20T10:55:52;99070.84;;;21.41;54.59
11912;BME280;6016;41.928;25.556;2023-05-20T10:58:21;99193.97;;;21.97;56.42
11912;BME280;6016;41.928;25.556;2023-05-20T11:00:49;99201.28;;;22.28;54.74
11912;BME280;6016;41.928;25.556;2023-05-20T11:03:16;99201.91;;;22.30;55.98
11912;BME280;6016;41.928;25.556;2023-05-20T11:05:46;99157.91;;;21.59;56.03
11912;BME280;6016;41.928;25.556;2023-05-20T11:08:13;98822.44;;;19.34;57.33
11912;BME280;6016;41.928;25.556;2023-05-20T11:10:41;99201.00;;;21.98;54.66
11912;BME280;6016;41.928;25.556;2023-05-20T11:13:11;99090.06;;;21.31;55.94
11912;BME280;6016;41.928;25.556;2023-05-20T11:15:38;99140.78;;;21.67;55.05
11912;BME280;6016;41.928;25.556;2023-05-20T11:18:05;99177.66;;;21.91;56.90
11912;BME280;6016;41.928;25.556;2023-05-20T11:20:32;99172.97;;;21.87;56.23
11912;BME280;6016;41.928;25.556;2023-05-20T11:23:01;99190.75;;;22.27;56.29
11912;BME280;6016;41.928;25.556;2023-05-20T11:25:29;99096.78;;;21.74;56.53
11912;BME280;6016;41.928;25.556;2023-05-20T11:27:56;99129.53;;;21.97;56.71
11912;BME280;6016;41.928;25.556;2023-05-20T11:30:23;99097.75;;;21.87;55.06
11912;BME280;6016;41.928;25.556;2023-05-20T11:32:57;99122.00;;;22.12;54.84
11912;BME280;6016;41.928;25.556;2023-05-20T11:35:26;99181.88;;;22.65;54.18
11912;BME280;6016;41.928;25.556;2023-05-20T11:37:55;99170.75;;;22.87;54.78
11912;BME280;6016;41.928;25.556;2023-05-20T11:40:24;99097.69;;;22.90;54.11
11912;BME280;6016;41.928;25.556;2023-05-20T11:42:53;99146.84;;;23.23;54.25
11912;BME280;6016;41.928;25.556;2023-05-20T11:45:21;99096.16;;;22.50;53.32
11912;BME280;6016;41.928;25.556;2023-05-20T11:47:58;99098.47;;;22.40;54.72
11912;BME280;6016;41.928;25.556;2023-05-20T11:50:25;99176.94;;;22.62;54.30
11912;BME280;6016;41.928;25.556;2023-05-20T11:52:56;99106.13;;;22.04;54.05
11912;BME280;6016;41.928;25.556;2023-05-20T11:55:24;99173.09;;;22.44;55.58
11912;BME280;6016;41.928;25.556;2023-05-20T11:57:53;99177.72;;;22.30;55.44
11912;BME280;6016;41.928;25.556;2023-05-20T12:00:21;99167.25;;;22.09;56.42
11912;BME280;6016;41.928;25.556;2023-05-20T12:02:48;99151.25;;;21.82;55.56
11912;BME280;6016;41.928;25.556;2023-05-20T12:05:15;99173.09;;;21.99;54.39
11912;BME280;6016;41.928;25.556;2023-05-20T12:07:42;99179.16;;;21.81;55.98
11912;BME280;6016;41.928;25.556;2023-05-20T12:10:10;99092.91;;;21.43;55.01
11912;BME280;6016;41.928;25.556;2023-05-20T12:12:39;99192.31;;;22.02;54.92
11912;BME280;6016;41.928;25.556;2023-05-20T12:15:07;99137.06;;;21.54;55.92
11912;BME280;6016;41.928;25.556;2023-05-20T12:17:43;99175.88;;;21.72;58.13
11912;BME280;6016;41.928;25.556;2023-05-20T12:20:12;99135.00;;;21.56;57.37
11912;BME280;6016;41.928;25.556;2023-05-20T12:22:39;99038.56;;;20.89;59.60
11912;BME280;6016;41.928;25.556;2023-05-20T12:25:07;99188.69;;;21.56;58.85
11912;BME280;6016;41.928;25.556;2023-05-20T12:27:34;99163.69;;;21.56;58.30
11912;BME280;6016;41.928;25.556;2023-05-20T12:30:03;99163.31;;;21.45;59.20
11912;BME280;6016;41.928;25.556;2023-05-20T12:32:30;99077.75;;;20.90;58.44
11912;BME280;6016;41.928;25.556;2023-05-20T12:34:56;99103.75;;;21.03;58.86
11912;BME280;6016;41.928;25.556;2023-05-20T12:37:23;99154.25;;;21.33;58.16
11912;BME280;6016;41.928;25.556;2023-05-20T12:39:50;99144.34;;;21.40;58.45
11912;BME280;6016;41.928;25.556;2023-05-20T12:42:17;99161.63;;;21.58;58.35
11912;BME280;6016;41.928;25.556;2023-05-20T12:44:46;99076.06;;;21.09;58.21
11912;BME280;6016;41.928;25.556;2023-05-20T12:47:14;99148.66;;;21.48;57.69
11912;BME280;6016;41.928;25.556;2023-05-20T12:49:41;99047.88;;;20.86;58.01
11912;BME280;6016;41.928;25.556;2023-05-20T12:52:08;99146.81;;;21.35;58.12
11912;BME280;6016;41.928;25.556;2023-05-20T12:54:35;99089.50;;;21.02;56.66
11912;BME280;6016;41.928;25.556;2023-05-20T12:57:02;99082.28;;;21.10;56.87
11912;BME280;6016;41.928;25.556;2023-05-20T12:59:30;99141.44;;;21.35;58.36
11912;BME280;6016;41.928;25.556;2023-05-20T13:01:57;99136.91;;;21.42;55.75
11912;BME280;6016;41.928;25.556;2023-05-20T13:04:25;99132.72;;;21.60;55.76